Time;durP1;ratioP1;P1;durP2;ratioP2;P2;SDS_P1;SDS_P2;PMS_P1;PMS_P2;Temp;Humidity;BMP_temperature;BMP_pressure;BME280_temperature;BME280_humidity;BME280_pressure;Samples;Min_cycle;Max_cycle;Signal;HPM_P1;HPM_P2
2024/03/21 00:00:13;;;;;;;;;;;6.60;99.90;;;;;;4957082;28;19930;-63
2024/03/21 00:02:40;;;;;;;;;;;6.60;99.90;;;;;;4969898;28;20229;-63
2024/03/21 00:05:06;;;;;;;;;;;6.50;99.90;;;;;;4963043;28;20295;-63
2024/03/21 00:07:33;;;;;;;;;;;6.40;99.90;;;;;;4962398;28;19926;-63
2024/03/21 00:09:59;;;;;;;;;;;6.40;99.90;;;;;;4967926;28;19934;-64
2024/03/21 00:12:25;;;;;;;;;;;6.40;99.90;;;;;;4965653;28;19948;-63
2024/03/21 00:14:51;;;;;;;;;;;6.40;99.90;;;;;;4957430;28;19949;-63
2024/03/21 00:17:17;;;;;;;;;;;6.30;99.90;;;;;;4966178;28;20398;-64
2024/03/21 00:19:43;;;;;;;;;;;6.30;99.90;;;;;;4968654;28;20346;-63
2024/03/21 00:22:08;;;;;;;;;;;6.30;99.90;;;;;;4967151;28;20024;-64
2024/03/21 00:24:37;;;;;;;;;;;6.30;99.90;;;;;;4961222;28;20016;-63
2024/03/21 00:27:06;;;;;;;;;;;6.30;99.90;;;;;;4966875;28;19930;-63
2024/03/21 00:29:33;;;;;;;;;;;6.30;99.90;;;;;;4976405;28;19926;-64
2024/03/21 00:31:59;;;;;;;;;;;6.20;99.90;;;;;;4959389;28;19926;-63
2024/03/21 00:34:26;;;;;;;;;;;6.20;99.90;;;;;;4971771;28;19932;-63
2024/03/21 00:36:52;;;;;;;;;;;6.20;99.90;;;;;;4965646;28;19930;-64
2024/03/21 00:39:20;;;;;;;;;;;6.20;99.90;;;;;;4970759;28;20322;-63
2024/03/21 00:41:46;;;;;;;;;;;6.10;99.90;;;;;;4955134;28;19934;-63
2024/03/21 00:44:12;;;;;;;;;;;6.10;99.90;;;;;;4969431;28;20350;-63
2024/03/21 00:46:38;;;;;;;;;;;6.10;99.90;;;;;;4970761;28;20336;-63
2024/03/21 00:49:04;;;;;;;;;;;6.20;99.90;;;;;;4968683;28;20025;-63
2024/03/21 00:51:31;;;;;;;;;;;6.10;99.90;;;;;;4971752;28;19930;-63
2024/03/21 00:54:00;;;;;;;;;;;6.10;99.90;;;;;;4948729;28;19926;-63
2024/03/21 00:56:26;;;;;;;;;;;6.20;99.90;;;;;;4961879;28;20689;-63
2024/03/21 00:58:54;;;;;;;;;;;6.20;99.90;;;;;;4975486;28;19976;-63
2024/03/21 01:01:20;;;;;;;;;;;6.10;99.90;;;;;;4965860;28;19928;-63
2024/03/21 01:03:46;;;;;;;;;;;6.10;99.90;;;;;;4968961;28;19930;-63
2024/03/21 01:06:12;;;;;;;;;;;6.10;99.90;;;;;;4959429;28;20021;-63
2024/03/21 01:08:38;;;;;;;;;;;6.20;99.90;;;;;;4968610;28;19930;-63
2024/03/21 01:11:04;;;;;;;;;;;6.20;99.90;;;;;;4959534;28;19932;-63
2024/03/21 01:13:29;;;;;;;;;;;6.20;99.90;;;;;;4970989;28;19934;-63
2024/03/21 01:15:56;;;;;;;;;;;6.30;99.90;;;;;;4968716;28;19929;-63
2024/03/21 01:18:34;;;;;;;;;;;6.30;99.90;;;;;;4967062;28;20449;-63
2024/03/21 01:21:01;;;;;;;;;;;6.30;99.90;;;;;;4972016;28;19972;-63
2024/03/21 01:23:27;;;;;;;;;;;6.30;99.90;;;;;;4965158;28;19930;-63
2024/03/21 01:25:54;;;;;;;;;;;6.30;99.90;;;;;;4970492;28;19933;-64
2024/03/21 01:28:20;;;;;;;;;;;6.30;99.90;;;;;;4970898;28;19930;-63
2024/03/21 01:30:46;;;;;;;;;;;6.30;99.90;;;;;;4967248;28;20313;-63
2024/03/21 01:33:12;;;;;;;;;;;6.30;99.90;;;;;;4967762;28;19933;-63
2024/03/21 01:35:37;;;;;;;;;;;6.30;99.90;;;;;;4970684;28;19929;-63
2024/03/21 01:38:06;;;;;;;;;;;6.20;99.90;;;;;;4969739;28;19931;-63
2024/03/21 01:40:33;;;;;;;;;;;6.20;99.90;;;;;;4968423;28;19926;-63
2024/03/21 01:42:59;;;;;;;;;;;6.10;99.90;;;;;;4964342;28;19926;-64
2024/03/21 01:45:26;;;;;;;;;;;6.10;99.90;;;;;;4969064;28;20424;-63
2024/03/21 01:47:52;;;;;;;;;;;6.00;99.90;;;;;;4965214;28;19937;-63
2024/03/21 01:50:18;;;;;;;;;;;6.00;99.90;;;;;;4959181;28;19930;-63
2024/03/21 01:52:44;;;;;;;;;;;6.00;99.90;;;;;;4967837;28;19988;-63
2024/03/21 01:55:14;;;;;;;;;;;6.00;99.90;;;;;;4965053;28;20306;-63
2024/03/21 01:57:40;;;;;;;;;;;5.90;99.90;;;;;;4968206;28;19926;-63
2024/03/21 02:00:07;;;;;;;;;;;5.90;99.90;;;;;;4969058;28;19934;-63
2024/03/21 02:02:34;;;;;;;;;;;5.90;99.90;;;;;;4967580;28;19984;-63
2024/03/21 02:05:04;;;;;;;;;;;5.90;99.90;;;;;;4968869;28;19934;-63
2024/03/21 02:07:33;;;;;;;;;;;5.90;99.90;;;;;;4968860;28;19957;-63
2024/03/21 02:09:58;;;;;;;;;;;5.90;99.90;;;;;;4965300;28;19925;-63
2024/03/21 02:12:40;;;;;;;;;;;5.90;99.90;;;;;;4963192;28;20018;-63
2024/03/21 02:15:07;;;;;;;;;;;5.90;99.90;;;;;;4971317;28;19930;-63
2024/03/21 02:17:33;;;;;;;;;;;5.90;99.90;;;;;;4957980;28;19957;-63
2024/03/21 02:19:59;;;;;;;;;;;5.90;99.90;;;;;;4965919;28;19927;-63
2024/03/21 02:22:37;;;;;;;;;;;5.80;99.90;;;;;;4968114;28;20024;-63
2024/03/21 02:25:06;;;;;;;;;;;5.80;99.90;;;;;;4967150;28;20666;-63
2024/03/21 02:27:33;;;;;;;;;;;5.80;99.90;;;;;;4968346;28;20556;-63
2024/03/21 02:29:59;;;;;;;;;;;5.80;99.90;;;;;;4967531;28;19932;-63
2024/03/21 02:32:25;;;;;;;;;;;5.80;99.90;;;;;;4958373;28;20330;-63
2024/03/21 02:34:51;;;;;;;;;;;5.70;99.90;;;;;;4973323;28;19937;-63
2024/03/21 02:37:17;;;;;;;;;;;5.70;99.90;;;;;;4961619;28;19925;-63
2024/03/21 02:39:46;;;;;;;;;;;5.70;99.90;;;;;;4969964;28;19933;-63
2024/03/21 02:42:12;;;;;;;;;;;5.70;99.90;;;;;;4979572;28;19926;-63
2024/03/21 02:44:38;;;;;;;;;;;5.70;99.90;;;;;;4968152;28;19933;-63
2024/03/21 02:47:04;;;;;;;;;;;5.60;99.90;;;;;;4957140;28;19937;-63
2024/03/21 02:49:30;;;;;;;;;;;5.60;99.90;;;;;;4957175;28;20017;-63
2024/03/21 02:51:56;;;;;;;;;;;5.50;99.90;;;;;;4966411;28;20283;-63
2024/03/21 02:54:22;;;;;;;;;;;5.50;99.90;;;;;;4971891;28;19926;-63
2024/03/21 02:56:47;;;;;;;;;;;5.50;99.90;;;;;;4968436;28;20342;-63
2024/03/21 02:59:13;;;;;;;;;;;5.50;99.90;;;;;;4981787;28;19981;-63
2024/03/21 03:01:39;;;;;;;;;;;5.50;99.90;;;;;;4966464;28;19926;-63
2024/03/21 03:04:05;;;;;;;;;;;5.50;99.90;;;;;;4968008;28;19926;-63
2024/03/21 03:06:31;;;;;;;;;;;5.60;99.90;;;;;;4955165;28;19926;-63
2024/03/21 03:08:57;;;;;;;;;;;5.50;99.90;;;;;;4967056;28;20297;-63
2024/03/21 03:11:22;;;;;;;;;;;5.50;99.90;;;;;;4964804;28;19925;-64
2024/03/21 03:13:49;;;;;;;;;;;5.50;99.90;;;;;;4968296;28;19980;-63
2024/03/21 03:16:15;;;;;;;;;;;5.50;99.90;;;;;;4949907;28;19930;-63
2024/03/21 03:18:40;;;;;;;;;;;5.60;99.90;;;;;;4956812;28;20386;-63
2024/03/21 03:21:06;;;;;;;;;;;5.60;99.90;;;;;;4937510;28;20298;-63
2024/03/21 03:23:32;;;;;;;;;;;5.60;99.90;;;;;;4969828;28;19949;-63
2024/03/21 03:25:58;;;;;;;;;;;5.60;99.90;;;;;;4972446;28;19926;-63
2024/03/21 03:28:25;;;;;;;;;;;5.70;99.90;;;;;;4956255;28;20025;-64
2024/03/21 03:30:51;;;;;;;;;;;5.70;99.90;;;;;;4966182;28;20354;-63
2024/03/21 03:36:01;;;;;;;;;;;5.80;99.90;;;;;;4964460;28;19930;-63
2024/03/21 03:38:27;;;;;;;;;;;5.80;99.90;;;;;;4963175;28;19933;-64
2024/03/21 03:40:53;;;;;;;;;;;5.80;99.90;;;;;;4953208;28;19941;-63
2024/03/21 03:43:19;;;;;;;;;;;5.80;99.90;;;;;;4983845;28;19926;-63
2024/03/21 03:45:45;;;;;;;;;;;5.80;99.90;;;;;;4967624;28;20297;-63
2024/03/21 03:48:10;;;;;;;;;;;5.80;99.90;;;;;;4956236;28;20417;-63
2024/03/21 03:50:36;;;;;;;;;;;5.90;99.90;;;;;;4972012;28;20287;-63
2024/03/21 03:53:02;;;;;;;;;;;5.90;99.90;;;;;;4968313;28;19958;-64
2024/03/21 03:55:28;;;;;;;;;;;5.90;99.90;;;;;;4966513;28;19926;-63
2024/03/21 03:57:54;;;;;;;;;;;5.90;99.90;;;;;;4965851;28;19968;-63
2024/03/21 04:00:20;;;;;;;;;;;5.90;99.90;;;;;;4963190;28;19930;-63
2024/03/21 04:02:47;;;;;;;;;;;5.90;99.90;;;;;;4961369;28;19930;-63
2024/03/21 04:05:17;;;;;;;;;;;5.90;99.90;;;;;;4950684;28;20283;-63
2024/03/21 04:07:43;;;;;;;;;;;5.90;99.90;;;;;;4982285;28;19930;-63
2024/03/21 04:10:09;;;;;;;;;;;5.90;99.90;;;;;;4968109;28;19926;-63
2024/03/21 04:12:35;;;;;;;;;;;5.90;99.90;;;;;;4967485;28;20016;-63
2024/03/21 04:15:01;;;;;;;;;;;5.90;99.90;;;;;;4964980;28;19980;-63
2024/03/21 04:17:27;;;;;;;;;;;5.90;99.90;;;;;;4967629;28;19934;-63
2024/03/21 04:19:53;;;;;;;;;;;6.00;99.90;;;;;;4968983;28;19937;-63
2024/03/21 04:22:19;;;;;;;;;;;6.00;99.90;;;;;;4965810;28;19989;-63
2024/03/21 04:24:47;;;;;;;;;;;6.10;99.90;;;;;;4964929;28;19930;-63
2024/03/21 04:27:13;;;;;;;;;;;6.10;99.90;;;;;;4962107;28;19937;-63
2024/03/21 04:29:39;;;;;;;;;;;6.10;99.90;;;;;;4968783;28;19926;-63
2024/03/21 04:32:05;;;;;;;;;;;6.10;99.90;;;;;;4963429;28;19936;-63
2024/03/21 04:34:30;;;;;;;;;;;6.10;99.90;;;;;;4966518;28;20357;-63
2024/03/21 04:36:56;;;;;;;;;;;6.10;99.90;;;;;;4968642;28;20016;-63
2024/03/21 04:39:22;;;;;;;;;;;6.10;99.90;;;;;;4954694;28;19926;-63
2024/03/21 04:41:48;;;;;;;;;;;6.20;99.90;;;;;;4955043;28;20506;-63
2024/03/21 04:44:14;;;;;;;;;;;6.20;99.90;;;;;;4967355;28;19925;-63
2024/03/21 04:46:39;;;;;;;;;;;6.30;99.90;;;;;;4971984;28;20146;-63
2024/03/21 04:49:05;;;;;;;;;;;6.50;99.90;;;;;;4953692;28;19992;-63
2024/03/21 04:51:31;;;;;;;;;;;6.60;99.90;;;;;;4962388;28;20313;-63
2024/03/21 04:53:57;;;;;;;;;;;6.80;99.90;;;;;;4957413;28;19933;-64
2024/03/21 04:56:22;;;;;;;;;;;6.90;99.90;;;;;;4960802;28;20021;-63
2024/03/21 04:58:50;;;;;;;;;;;6.80;99.90;;;;;;4965700;28;20046;-63
2024/03/21 05:01:17;;;;;;;;;;;6.80;99.90;;;;;;4974464;28;20369;-63
2024/03/21 05:03:43;;;;;;;;;;;6.70;99.90;;;;;;4968378;28;19926;-65
2024/03/21 05:06:09;;;;;;;;;;;6.70;99.90;;;;;;4968165;28;19956;-63
2024/03/21 05:08:35;;;;;;;;;;;6.60;99.90;;;;;;4968358;28;19953;-63
2024/03/21 05:11:00;;;;;;;;;;;6.60;99.90;;;;;;4967216;28;19930;-64
2024/03/21 05:13:26;;;;;;;;;;;6.80;99.90;;;;;;4966566;28;19930;-64
2024/03/21 05:15:52;;;;;;;;;;;6.90;99.90;;;;;;4969311;28;19930;-66
2024/03/21 05:18:18;;;;;;;;;;;6.90;99.90;;;;;;4976405;28;19930;-64
2024/03/21 05:20:45;;;;;;;;;;;7.40;99.90;;;;;;4972575;28;19938;-63
2024/03/21 05:23:10;;;;;;;;;;;7.80;99.90;;;;;;4966847;28;20389;-64
2024/03/21 05:25:37;;;;;;;;;;;8.20;99.90;;;;;;4959225;28;20472;-64
2024/03/21 05:28:03;;;;;;;;;;;8.50;99.90;;;;;;4958278;28;19930;-64
2024/03/21 05:30:29;;;;;;;;;;;8.70;99.90;;;;;;4970552;28;19934;-64
2024/03/21 05:32:56;;;;;;;;;;;9.00;99.90;;;;;;4959803;28;20398;-64
2024/03/21 05:35:24;;;;;;;;;;;9.20;99.90;;;;;;4976618;28;20136;-64
2024/03/21 05:37:49;;;;;;;;;;;9.30;99.90;;;;;;4967233;28;20301;-64
2024/03/21 05:40:15;;;;;;;;;;;9.40;99.90;;;;;;4982731;28;19932;-63
2024/03/21 05:42:44;;;;;;;;;;;9.50;99.90;;;;;;4979236;28;19926;-64
2024/03/21 05:45:10;;;;;;;;;;;9.60;99.90;;;;;;4962601;28;19933;-64
2024/03/21 05:47:36;;;;;;;;;;;9.70;99.90;;;;;;4973513;28;19933;-63
2024/03/21 05:50:03;;;;;;;;;;;9.70;99.90;;;;;;4971102;28;19929;-63
2024/03/21 05:52:29;;;;;;;;;;;9.80;99.90;;;;;;4969628;28;20334;-64
2024/03/21 05:54:55;;;;;;;;;;;9.90;99.90;;;;;;4961888;28;19925;-63
2024/03/21 05:57:22;;;;;;;;;;;9.90;99.90;;;;;;4964998;28;20355;-63
2024/03/21 05:59:52;;;;;;;;;;;10.00;99.90;;;;;;4958242;28;20394;-64
2024/03/21 06:02:18;;;;;;;;;;;10.10;99.90;;;;;;4976541;28;19930;-63
2024/03/21 06:04:44;;;;;;;;;;;10.10;99.90;;;;;;4958136;28;19985;-64
2024/03/21 06:07:10;;;;;;;;;;;10.10;99.90;;;;;;4964534;28;20016;-64
2024/03/21 06:09:36;;;;;;;;;;;10.10;99.90;;;;;;4957812;28;20402;-63
2024/03/21 06:12:02;;;;;;;;;;;10.10;99.90;;;;;;4974231;28;19933;-64
2024/03/21 06:14:27;;;;;;;;;;;10.10;99.90;;;;;;4957121;28;19929;-64
2024/03/21 06:16:54;;;;;;;;;;;10.20;99.90;;;;;;4970496;28;19926;-64
2024/03/21 06:19:19;;;;;;;;;;;10.20;99.90;;;;;;4972699;28;19988;-64
2024/03/21 06:21:45;;;;;;;;;;;10.20;99.90;;;;;;4973079;28;20313;-63
2024/03/21 06:24:11;;;;;;;;;;;10.30;99.90;;;;;;4982712;28;19932;-64
2024/03/21 06:26:37;;;;;;;;;;;10.40;99.90;;;;;;4988025;28;20364;-64
2024/03/21 06:29:03;;;;;;;;;;;10.50;99.90;;;;;;4970307;28;20022;-64
2024/03/21 06:31:29;;;;;;;;;;;10.60;99.90;;;;;;4985352;28;20012;-63
2024/03/21 06:33:54;;;;;;;;;;;10.80;99.90;;;;;;4971063;28;19934;-64
2024/03/21 06:36:20;;;;;;;;;;;10.90;99.90;;;;;;4968462;28;20473;-64
2024/03/21 06:38:46;;;;;;;;;;;11.00;99.90;;;;;;4965885;28;20028;-63
2024/03/21 06:41:12;;;;;;;;;;;11.10;99.90;;;;;;4973118;28;19929;-63
2024/03/21 06:43:38;;;;;;;;;;;11.10;99.90;;;;;;4964561;28;19937;-63
2024/03/21 06:46:04;;;;;;;;;;;11.20;99.90;;;;;;4970179;28;20005;-64
2024/03/21 06:48:30;;;;;;;;;;;11.20;99.90;;;;;;4986867;28;19984;-63
2024/03/21 06:50:56;;;;;;;;;;;11.20;99.90;;;;;;4985536;28;19930;-64
2024/03/21 06:53:22;;;;;;;;;;;11.10;99.90;;;;;;4966000;28;19980;-63
2024/03/21 06:55:52;;;;;;;;;;;11.10;99.90;;;;;;4970975;28;19925;-63
2024/03/21 06:58:18;;;;;;;;;;;11.10;99.90;;;;;;4968343;28;20787;-64
2024/03/21 07:00:46;;;;;;;;;;;11.10;99.90;;;;;;4966160;28;19934;-63
2024/03/21 07:03:14;;;;;;;;;;;11.20;99.90;;;;;;4965562;28;19949;-63
2024/03/21 07:05:40;;;;;;;;;;;11.20;99.90;;;;;;4969106;28;19926;-63
2024/03/21 07:08:07;;;;;;;;;;;11.20;99.90;;;;;;4945648;28;19926;-63
2024/03/21 07:10:33;;;;;;;;;;;11.20;99.90;;;;;;4966800;28;20393;-63
2024/03/21 07:12:59;;;;;;;;;;;11.30;99.90;;;;;;4966467;28;19977;-63
2024/03/21 07:15:24;;;;;;;;;;;11.40;99.90;;;;;;4968472;28;19945;-63
2024/03/21 07:17:51;;;;;;;;;;;11.40;99.90;;;;;;4965211;28;20566;-63
2024/03/21 07:20:17;;;;;;;;;;;11.50;99.90;;;;;;4953724;28;20704;-63
2024/03/21 07:22:43;;;;;;;;;;;11.60;99.90;;;;;;4964995;28;19926;-64
2024/03/21 07:25:10;;;;;;;;;;;11.60;99.90;;;;;;4953475;28;20279;-63
2024/03/21 07:27:37;;;;;;;;;;;11.60;99.90;;;;;;4962246;28;19943;-63
2024/03/21 07:30:08;;;;;;;;;;;11.70;99.90;;;;;;4964409;28;20009;-63
2024/03/21 07:32:34;;;;;;;;;;;11.70;99.90;;;;;;4960419;28;19936;-64
2024/03/21 07:35:01;;;;;;;;;;;11.80;99.90;;;;;;4964780;28;19934;-64
2024/03/21 07:37:27;;;;;;;;;;;11.80;99.90;;;;;;4964070;28;19930;-64
2024/03/21 07:39:52;;;;;;;;;;;12.00;99.90;;;;;;4982531;28;19941;-64
2024/03/21 07:42:18;;;;;;;;;;;12.00;99.90;;;;;;4965668;28;20466;-64
2024/03/21 07:44:44;;;;;;;;;;;12.00;99.90;;;;;;4969547;28;19930;-64
2024/03/21 07:47:10;;;;;;;;;;;12.00;99.90;;;;;;4967025;28;20491;-64
2024/03/21 07:49:36;;;;;;;;;;;12.00;99.90;;;;;;4978330;28;19972;-64
2024/03/21 07:52:03;;;;;;;;;;;12.00;99.90;;;;;;4964572;28;20433;-64
2024/03/21 07:54:33;;;;;;;;;;;12.00;99.90;;;;;;4965109;28;19933;-63
2024/03/21 07:56:59;;;;;;;;;;;11.90;99.90;;;;;;4961478;28;19930;-64
2024/03/21 07:59:25;;;;;;;;;;;11.90;99.90;;;;;;4966449;28;20714;-64
2024/03/21 08:01:51;;;;;;;;;;;11.90;99.90;;;;;;4958230;28;19934;-64
2024/03/21 08:04:17;;;;;;;;;;;11.90;99.90;;;;;;4965953;28;19980;-64
2024/03/21 08:06:43;;;;;;;;;;;11.80;99.90;;;;;;4964541;28;20302;-64
2024/03/21 08:09:09;;;;;;;;;;;11.70;99.90;;;;;;4968624;28;19969;-63
2024/03/21 08:11:35;;;;;;;;;;;11.70;99.90;;;;;;4963455;28;19933;-63
2024/03/21 08:14:02;;;;;;;;;;;11.60;99.90;;;;;;4965049;28;19972;-63
2024/03/21 08:16:28;;;;;;;;;;;11.40;99.90;;;;;;4964375;28;19926;-64
2024/03/21 08:18:54;;;;;;;;;;;11.30;99.90;;;;;;4966007;28;19926;-64
2024/03/21 08:21:21;;;;;;;;;;;11.20;99.90;;;;;;4955557;28;19929;-64
2024/03/21 08:23:47;;;;;;;;;;;11.00;99.90;;;;;;4963614;28;19983;-64
2024/03/21 08:26:13;;;;;;;;;;;10.90;99.90;;;;;;4980176;28;19926;-64
2024/03/21 08:28:39;;;;;;;;;;;10.70;99.90;;;;;;4956438;28;20017;-65
2024/03/21 08:31:05;;;;;;;;;;;10.60;99.90;;;;;;4964691;28;20441;-64
2024/03/21 08:33:30;;;;;;;;;;;10.50;99.90;;;;;;4965240;28;19980;-64
2024/03/21 08:35:56;;;;;;;;;;;10.40;99.90;;;;;;4967371;28;19933;-64
2024/03/21 08:38:22;;;;;;;;;;;10.50;99.90;;;;;;4967648;28;19929;-64
2024/03/21 08:40:52;;;;;;;;;;;10.40;99.90;;;;;;4980426;28;19937;-64
2024/03/21 08:43:18;;;;;;;;;;;10.40;99.90;;;;;;4969287;28;19925;-64
2024/03/21 08:45:47;;;;;;;;;;;10.30;99.90;;;;;;4963266;28;19957;-64
2024/03/21 08:48:14;;;;;;;;;;;10.30;99.90;;;;;;4959330;28;19929;-64
2024/03/21 08:50:41;;;;;;;;;;;10.30;99.90;;;;;;4959633;28;19930;-64
2024/03/21 08:53:06;;;;;;;;;;;10.30;99.90;;;;;;4955887;28;19926;-64
2024/03/21 08:55:33;;;;;;;;;;;10.30;99.90;;;;;;4973308;28;19933;-64
2024/03/21 08:57:59;;;;;;;;;;;10.30;99.90;;;;;;4955093;28;19930;-64
2024/03/21 09:00:25;;;;;;;;;;;10.30;99.90;;;;;;4971769;28;20032;-64
2024/03/21 09:02:51;;;;;;;;;;;10.30;99.90;;;;;;4972154;28;19952;-64
2024/03/21 09:05:17;;;;;;;;;;;10.30;99.90;;;;;;4969502;28;20398;-64
2024/03/21 09:07:43;;;;;;;;;;;10.30;99.90;;;;;;4956948;28;19926;-65
2024/03/21 09:10:09;;;;;;;;;;;10.30;99.90;;;;;;4971411;28;19930;-64
2024/03/21 09:12:34;;;;;;;;;;;10.30;99.90;;;;;;4963317;28;19926;-64
2024/03/21 09:15:00;;;;;;;;;;;10.30;99.90;;;;;;4964101;28;19993;-64
2024/03/21 09:17:26;;;;;;;;;;;10.30;99.90;;;;;;4964202;28;19934;-64
2024/03/21 09:19:52;;;;;;;;;;;10.20;99.90;;;;;;4967731;28;19930;-64
2024/03/21 09:22:18;;;;;;;;;;;10.20;99.90;;;;;;4972126;28;19929;-64
2024/03/21 09:24:46;;;;;;;;;;;10.20;99.90;;;;;;4964635;28;19930;-65
2024/03/21 09:27:12;;;;;;;;;;;10.20;99.90;;;;;;4967633;28;19930;-65
2024/03/21 09:29:38;;;;;;;;;;;10.20;99.90;;;;;;4968461;28;19926;-64
2024/03/21 09:32:04;;;;;;;;;;;10.30;99.90;;;;;;4961568;28;19976;-64
2024/03/21 09:34:30;;;;;;;;;;;10.30;99.90;;;;;;4970187;28;19945;-64
2024/03/21 09:36:56;;;;;;;;;;;10.20;99.90;;;;;;4963827;28;19933;-64
2024/03/21 09:39:22;;;;;;;;;;;10.20;99.90;;;;;;4966991;28;19948;-64
2024/03/21 09:41:51;;;;;;;;;;;10.20;99.90;;;;;;4956436;28;20358;-64
2024/03/21 09:44:17;;;;;;;;;;;10.20;99.90;;;;;;4960618;28;20460;-64
2024/03/21 09:46:44;;;;;;;;;;;10.20;99.90;;;;;;4955442;28;19930;-64
2024/03/21 09:49:11;;;;;;;;;;;10.30;99.90;;;;;;4973578;28;20398;-65
2024/03/21 09:51:38;;;;;;;;;;;10.30;99.90;;;;;;4969981;28;19948;-64
2024/03/21 09:54:04;;;;;;;;;;;10.30;99.90;;;;;;4967294;28;20434;-64
2024/03/21 09:56:30;;;;;;;;;;;10.30;99.90;;;;;;4967955;28;19926;-64
2024/03/21 09:58:56;;;;;;;;;;;10.30;99.90;;;;;;4964691;28;20460;-64
2024/03/21 10:01:22;;;;;;;;;;;10.30;99.90;;;;;;4968154;28;19930;-64
2024/03/21 10:03:51;;;;;;;;;;;10.30;99.90;;;;;;4966798;28;19997;-64
2024/03/21 10:06:17;;;;;;;;;;;10.40;99.90;;;;;;4967429;28;20418;-64
2024/03/21 10:08:42;;;;;;;;;;;10.40;99.90;;;;;;4972351;28;19969;-64
2024/03/21 10:11:08;;;;;;;;;;;10.50;99.90;;;;;;4965477;28;19930;-64
2024/03/21 10:13:37;;;;;;;;;;;10.50;99.90;;;;;;4965769;28;20370;-64
2024/03/21 10:16:03;;;;;;;;;;;10.50;99.90;;;;;;4966983;28;19926;-64
2024/03/21 10:18:35;;;;;;;;;;;10.50;99.90;;;;;;4968509;28;20017;-64
2024/03/21 10:21:02;;;;;;;;;;;10.60;99.90;;;;;;4968691;28;20006;-64
2024/03/21 10:23:28;;;;;;;;;;;10.60;99.90;;;;;;4978422;28;19926;-64
2024/03/21 10:25:54;;;;;;;;;;;10.60;99.90;;;;;;4967669;28;19932;-64
2024/03/21 10:28:20;;;;;;;;;;;10.60;99.90;;;;;;4968477;28;19941;-64
2024/03/21 10:30:46;;;;;;;;;;;10.60;99.90;;;;;;4957026;28;20493;-64
2024/03/21 10:33:15;;;;;;;;;;;10.70;99.90;;;;;;4970207;28;19930;-64
2024/03/21 10:35:41;;;;;;;;;;;10.70;99.90;;;;;;4951396;28;19972;-64
2024/03/21 10:38:15;;;;;;;;;;;10.70;99.90;;;;;;4952309;28;19930;-64
2024/03/21 10:40:55;;;;;;;;;;;10.70;99.90;;;;;;4972814;28;19930;-64
2024/03/21 10:43:23;;;;;;;;;;;10.80;99.90;;;;;;4971781;28;19936;-64
2024/03/21 10:45:50;;;;;;;;;;;10.80;99.90;;;;;;4966976;28;19930;-64
2024/03/21 10:48:29;;;;;;;;;;;10.80;99.90;;;;;;4970901;28;19966;-64
2024/03/21 10:50:55;;;;;;;;;;;10.90;99.90;;;;;;4955120;28;19930;-64
2024/03/21 10:53:21;;;;;;;;;;;11.00;99.90;;;;;;4968397;28;19940;-63
2024/03/21 10:55:51;;;;;;;;;;;11.00;99.90;;;;;;4969921;28;19961;-63
2024/03/21 10:58:18;;;;;;;;;;;11.10;99.90;;;;;;4966214;28;19930;-64
2024/03/21 11:00:53;;;;;;;;;;;11.10;99.90;;;;;;4958722;28;19930;-64
2024/03/21 11:03:19;;;;;;;;;;;11.10;99.90;;;;;;4958681;28;19930;-64
2024/03/21 11:05:55;;;;;;;;;;;11.20;99.90;;;;;;4960482;28;19926;-63
2024/03/21 11:08:25;;;;;;;;;;;11.20;99.90;;;;;;4962206;28;20410;-63
2024/03/21 11:10:51;;;;;;;;;;;11.30;99.90;;;;;;4967816;28;19937;-63
2024/03/21 11:13:17;;;;;;;;;;;11.40;99.90;;;;;;4967358;28;19929;-64
2024/03/21 11:15:42;;;;;;;;;;;11.40;99.90;;;;;;4968284;28;19981;-63
2024/03/21 11:18:09;;;;;;;;;;;11.50;99.90;;;;;;4956039;28;19926;-63
2024/03/21 11:20:35;;;;;;;;;;;11.50;99.90;;;;;;4968693;28;19926;-63
2024/03/21 11:23:01;;;;;;;;;;;11.50;99.90;;;;;;4955850;28;19930;-64
2024/03/21 11:25:27;;;;;;;;;;;11.60;99.90;;;;;;4971063;28;19949;-64
2024/03/21 11:27:53;;;;;;;;;;;11.70;99.90;;;;;;4965477;28;20305;-64
2024/03/21 11:30:19;;;;;;;;;;;11.80;99.90;;;;;;4965908;28;19976;-64
2024/03/21 11:32:45;;;;;;;;;;;12.00;99.90;;;;;;4976681;28;20349;-64
2024/03/21 11:35:11;;;;;;;;;;;12.20;99.90;;;;;;4969318;28;19930;-64
2024/03/21 11:37:36;;;;;;;;;;;12.30;99.90;;;;;;4945774;28;19929;-64
2024/03/21 11:40:02;;;;;;;;;;;12.40;99.90;;;;;;4966357;28;20389;-64
2024/03/21 11:42:28;;;;;;;;;;;12.50;99.90;;;;;;4969365;28;19944;-64
2024/03/21 11:44:56;;;;;;;;;;;12.60;99.90;;;;;;4966771;28;19927;-64
2024/03/21 11:47:22;;;;;;;;;;;12.80;99.90;;;;;;4969730;28;19932;-64
2024/03/21 11:49:49;;;;;;;;;;;13.00;99.90;;;;;;4974209;28;20313;-64
2024/03/21 11:52:15;;;;;;;;;;;13.10;99.90;;;;;;4975450;28;19925;-63
2024/03/21 11:54:42;;;;;;;;;;;13.20;99.90;;;;;;4978682;28;19930;-64
2024/03/21 11:57:10;;;;;;;;;;;13.20;99.90;;;;;;4974688;28;20724;-63
2024/03/21 11:59:40;;;;;;;;;;;13.30;99.90;;;;;;4976096;28;19932;-64
2024/03/21 12:02:19;;;;;;;;;;;13.30;99.90;;;;;;4969989;28;20406;-63
2024/03/21 12:04:45;;;;;;;;;;;13.30;99.90;;;;;;4967152;28;19988;-64
2024/03/21 12:07:12;;;;;;;;;;;13.40;99.90;;;;;;4966152;28;19937;-64
2024/03/21 12:09:38;;;;;;;;;;;13.60;99.90;;;;;;4967234;28;19925;-63
2024/03/21 12:12:05;;;;;;;;;;;13.90;99.90;;;;;;4966813;28;19936;-64
2024/03/21 12:14:30;;;;;;;;;;;14.20;99.90;;;;;;4967080;28;20405;-63
2024/03/21 12:16:56;;;;;;;;;;;14.30;99.90;;;;;;4972439;28;19941;-63
2024/03/21 12:19:22;;;;;;;;;;;14.40;99.90;;;;;;4955506;28;19925;-63
2024/03/21 12:21:48;;;;;;;;;;;14.30;99.90;;;;;;4967588;28;20036;-64
2024/03/21 12:24:14;;;;;;;;;;;14.40;99.90;;;;;;4955808;28;19936;-63
2024/03/21 12:26:39;;;;;;;;;;;14.40;99.90;;;;;;4961149;28;20611;-63
2024/03/21 12:29:05;;;;;;;;;;;14.30;99.90;;;;;;4958002;28;19930;-64
2024/03/21 12:31:31;;;;;;;;;;;14.30;99.90;;;;;;4969213;28;19926;-64
2024/03/21 12:34:00;;;;;;;;;;;14.20;99.90;;;;;;4972379;28;19926;-63
2024/03/21 12:36:26;;;;;;;;;;;14.20;99.90;;;;;;4970750;28;19930;-63
2024/03/21 12:38:51;;;;;;;;;;;14.20;99.90;;;;;;4970921;28;20369;-64
2024/03/21 12:41:18;;;;;;;;;;;14.30;99.90;;;;;;4976674;28;19957;-64
2024/03/21 12:43:44;;;;;;;;;;;14.30;99.90;;;;;;4960555;28;19996;-64
2024/03/21 12:46:11;;;;;;;;;;;14.30;99.90;;;;;;4967194;28;20398;-63
2024/03/21 12:48:37;;;;;;;;;;;14.20;99.90;;;;;;4971648;28;20401;-64
2024/03/21 12:51:04;;;;;;;;;;;14.20;99.90;;;;;;4971661;28;20027;-64
2024/03/21 12:53:31;;;;;;;;;;;14.10;99.90;;;;;;4974580;28;19993;-64
2024/03/21 12:55:57;;;;;;;;;;;14.00;99.90;;;;;;4967928;28;19934;-64
2024/03/21 12:58:23;;;;;;;;;;;14.00;99.90;;;;;;4967206;28;19926;-64
2024/03/21 13:00:49;;;;;;;;;;;13.90;99.90;;;;;;4973699;28;19937;-63
2024/03/21 13:03:15;;;;;;;;;;;13.90;99.90;;;;;;4956819;28;19936;-63
2024/03/21 13:05:42;;;;;;;;;;;13.80;99.90;;;;;;4973251;28;19933;-63
2024/03/21 13:08:11;;;;;;;;;;;13.80;99.90;;;;;;4954549;28;19926;-63
2024/03/21 13:10:37;;;;;;;;;;;13.80;99.90;;;;;;4955112;28;20263;-63
2024/03/21 13:13:03;;;;;;;;;;;13.90;99.90;;;;;;4968443;28;20017;-63
2024/03/21 13:15:29;;;;;;;;;;;14.00;99.90;;;;;;4956310;28;19929;-63
2024/03/21 13:17:55;;;;;;;;;;;14.10;99.90;;;;;;4962019;28;20414;-63
2024/03/21 13:20:21;;;;;;;;;;;14.40;99.90;;;;;;4973353;28;19930;-63
2024/03/21 13:22:48;;;;;;;;;;;14.60;99.90;;;;;;4972012;28;19930;-63
2024/03/21 13:25:19;;;;;;;;;;;14.80;99.90;;;;;;4968034;28;19973;-63
2024/03/21 13:27:46;;;;;;;;;;;14.70;99.90;;;;;;4974382;28;19957;-64
2024/03/21 13:30:12;;;;;;;;;;;14.60;99.90;;;;;;4970155;28;21017;-63
2024/03/21 13:32:41;;;;;;;;;;;14.60;99.90;;;;;;4955713;28;19940;-60
2024/03/21 13:35:08;;;;;;;;;;;14.70;99.90;;;;;;4957145;28;19933;-64
2024/03/21 13:37:34;;;;;;;;;;;14.80;99.90;;;;;;4966718;28;19980;-63
2024/03/21 13:40:00;;;;;;;;;;;14.70;99.90;;;;;;4974055;28;19930;-63
2024/03/21 13:42:26;;;;;;;;;;;14.70;99.90;;;;;;4975951;28;19929;-63
2024/03/21 13:44:52;;;;;;;;;;;14.70;99.90;;;;;;4977018;28;20008;-63
2024/03/21 13:47:18;;;;;;;;;;;14.90;99.90;;;;;;4970399;28;19932;-63
2024/03/21 13:49:44;;;;;;;;;;;15.20;99.90;;;;;;4967232;28;19968;-63
2024/03/21 13:52:10;;;;;;;;;;;15.40;99.90;;;;;;4972045;28;19930;-63
2024/03/21 13:54:39;;;;;;;;;;;15.60;99.90;;;;;;4969732;28;20017;-63
2024/03/21 13:57:06;;;;;;;;;;;15.60;99.90;;;;;;4969538;28;20398;-63
2024/03/21 13:59:32;;;;;;;;;;;15.50;99.90;;;;;;4966213;28;19937;-63
2024/03/21 14:01:58;;;;;;;;;;;15.40;99.90;;;;;;4966803;28;19964;-63
2024/03/21 14:04:24;;;;;;;;;;;15.20;99.90;;;;;;4967696;28;19974;-63
2024/03/21 14:06:50;;;;;;;;;;;15.20;99.90;;;;;;4967275;28;20114;-63
2024/03/21 14:09:22;;;;;;;;;;;15.20;99.90;;;;;;4992908;28;19934;-63
2024/03/21 14:11:48;;;;;;;;;;;15.30;99.90;;;;;;4974132;28;19938;-63
2024/03/21 14:14:14;;;;;;;;;;;15.40;99.90;;;;;;4960402;28;19938;-64
2024/03/21 14:16:40;;;;;;;;;;;15.50;99.90;;;;;;4956484;28;19985;-63
2024/03/21 14:19:06;;;;;;;;;;;15.50;99.90;;;;;;4978639;28;19932;-62
2024/03/21 14:21:32;;;;;;;;;;;15.60;99.90;;;;;;4986717;28;19929;-63